Latest Weather Observations for Mount Isa

IDQ60801

Issued at 11:02 am EST Sunday 30 August 2015 (issued every 30 minutes, with the page automatically refreshed every 10 minutes)

About weather observations | Map of weather stations | Latest weather observations for QLD | Other Formats
Station Details ID: 029127 Name: MOUNT ISA AERO Lat: -20.68 Lon: 139.49 Height: 340.3 m
Data from the previous 72 hours. | See also: Recent months at Mount Isa
Date/Time
EST
Temp
°C
App
Temp
°C
Dew
Point
Rel
Hum
%
Delta-T
°C
Wind Press
QNH
hPa
Press
MSL
hPa
Rain
since 9 am
mm
Dir
 
Spd
km/h
Gust
km/h
Spd
kts
Gust
kts
30/11:00am 23.2 17.8 1.5 24 10.3 SSE 19 26 10 14 1021.4 - 0.0
30/10:30am 22.8 17.3 1.8 25 10.0 SSE 20 28 11 15 1021.6 - 0.0
30/10:00am 22.4 16.5 2.0 26 9.7 ESE 22 26 12 14 1021.6 - 0.0
30/09:30am 21.6 16.7 1.8 27 9.3 SE 17 24 9 13 1021.6 - 0.0
30/09:00am 20.4 15.4 1.3 28 8.8 SE 17 24 9 13 1021.5 1020.6 0.0
30/08:30am 19.4 13.9 0.9 29 8.4 SSE 19 24 10 13 1021.3 - 0.0
30/08:00am 18.2 12.7 0.4 30 8.0 SSE 19 26 10 14 1021.1 - 0.0
30/07:30am 17.0 12.2 0.2 32 7.4 SE 15 32 8 17 1020.9 - 0.0
30/07:00am 16.6 12.3 0.7 34 7.0 SSE 13 17 7 9 1020.5 - 0.0
30/06:30am 16.6 11.9 1.1 35 6.9 SSE 15 20 8 11 1020.0 - 0.0
30/06:00am 16.8 12.9 0.9 34 7.1 SSE 11 17 6 9 1019.7 1018.9 0.0
30/05:30am 17.1 12.8 0.7 33 7.3 SSE 13 17 7 9 1019.4 - 0.0
30/05:00am 17.3 13.3 0.5 32 7.5 SSE 11 17 6 9 1019.3 - 0.0
30/04:30am 18.0 12.5 0.6 31 7.8 SSE 19 26 10 14 1018.9 - 0.0
30/04:00am 18.0 12.9 0.6 31 7.8 SSE 17 28 9 15 1019.0 - 0.0
30/03:30am 18.5 13.4 0.6 30 8.0 SSE 17 24 9 13 1018.9 - 0.0
30/03:00am 19.1 14.0 0.7 29 8.3 SSE 17 26 9 14 1019.0 1018.1 0.0
30/02:30am 19.6 13.2 1.1 29 8.5 S 24 30 13 16 1019.0 - 0.0
30/02:00am 20.1 13.0 1.5 29 8.6 S 28 35 15 19 1018.9 - 0.0
30/01:30am 20.6 11.8 1.5 28 8.9 S 37 48 20 26 1018.4 - 0.0
30/01:00am 21.0 13.0 1.8 28 9.0 S 33 41 18 22 1018.9 - 0.0
30/12:30am 21.2 15.7 2.0 28 9.1 S 20 26 11 14 1019.7 - 0.0
30/12:00am 21.6 16.2 2.3 28 9.2 S 20 26 11 14 1019.8 1019.0 0.0
 
Date/Time
EST
Temp
°C
App
Temp
°C
Dew
Point
Rel
Hum
%
Delta-T
°C
Wind Press
QNH
hPa
Press
MSL
hPa
Rain
since 9 am
mm
Dir
 
Spd
km/h
Gust
km/h
Spd
kts
Gust
kts
29/11:30pm 21.9 16.7 2.6 28 9.3 S 19 24 10 13 1019.6 - 0.0
29/11:00pm 22.3 17.1 2.4 27 9.6 S 19 24 10 13 1019.6 - 0.0
29/10:30pm 22.8 17.6 2.3 26 9.9 S 19 24 10 13 1019.5 - 0.0
29/10:00pm 23.4 18.6 2.8 26 10.0 S 17 20 9 11 1019.4 - 0.0
29/09:30pm 23.9 18.8 3.2 26 10.2 S 19 24 10 13 1019.3 - 0.0
29/09:00pm 24.5 19.2 3.2 25 10.5 S 20 26 11 14 1019.1 1018.2 0.0
29/08:30pm 25.3 19.3 3.3 24 11.0 S 24 30 13 16 1018.8 - 0.0
29/08:00pm 25.9 20.0 3.8 24 11.2 SSW 24 30 13 16 1018.3 - 0.0
29/07:30pm 26.2 20.8 4.6 25 11.1 SSW 22 28 12 15 1017.9 - 0.0
29/07:00pm 26.5 22.1 4.9 25 11.2 SSW 17 22 9 12 1017.5 - 0.0
29/06:30pm 27.1 23.6 5.4 25 11.4 SW 13 17 7 9 1017.2 - 0.0
29/06:00pm 27.6 24.2 5.8 25 11.5 WSW 13 17 7 9 1017.0 1016.2 0.0
29/05:30pm 28.4 25.8 5.9 24 12.0 SSW 9 20 5 11 1016.8 - 0.0
29/05:00pm 28.4 25.2 5.3 23 12.2 SSE 11 15 6 8 1016.6 - 0.0
29/04:30pm 29.1 25.3 5.9 23 12.4 S 15 32 8 17 1016.5 - 0.0
29/04:00pm 29.1 25.7 5.9 23 12.4 SSW 13 24 7 13 1016.6 - 0.0
29/03:30pm 28.7 26.2 4.9 22 12.5 ESE 7 9 4 5 1016.8 - 0.0
29/03:00pm 28.3 23.6 5.2 23 12.1 SSW 19 28 10 15 1017.4 1016.5 0.0
29/02:30pm 29.0 26.2 5.1 22 12.6 SSE 9 13 5 7 1017.8 - 0.0
29/02:00pm 27.4 24.1 4.5 23 11.8 SSE 11 19 6 10 1018.3 - 0.0
29/01:30pm 27.5 24.1 3.9 22 12.1 SSW 11 19 6 10 1018.8 - 0.0
29/01:00pm 27.3 24.2 3.7 22 12.0 SE 9 17 5 9 1019.3 - 0.0
29/12:30pm 27.1 23.1 2.9 21 12.1 ESE 13 19 7 10 1019.7 - 0.0
29/12:00pm 27.1 23.1 2.9 21 12.1 E 13 20 7 11 1020.1 1019.3 0.0
29/11:30am 26.6 21.8 2.5 21 11.9 ESE 17 24 9 13 1020.6 - 0.0
29/11:00am 25.1 20.2 1.9 22 11.3 ESE 17 28 9 15 1021.2 - 0.0
29/10:30am 24.5 19.0 2.0 23 10.9 E 20 26 11 14 1021.4 - 0.0
29/10:00am 23.5 18.8 1.2 23 10.6 ESE 15 20 8 11 1021.6 - 0.0
29/09:30am 22.8 17.8 1.2 24 10.2 ESE 17 28 9 15 1021.6 - 0.0
29/09:00am 21.6 16.9 0.8 25 9.6 SE 15 24 8 13 1021.2 1020.3 0.0
29/08:30am 20.4 15.3 0.8 27 9.0 SE 17 22 9 12 1021.3 - 0.0
29/08:00am 19.1 15.5 0.7 29 8.3 SE 9 11 5 6 1020.8 - 0.0
29/07:30am 16.9 13.4 1.4 35 7.0 S 9 9 5 5 1020.6 - 0.0
29/07:00am 14.1 12.2 0.4 39 5.9 CALM 0 0 0 0 1020.1 - 0.0
29/06:30am 17.1 13.6 1.1 34 7.2 S 9 11 5 6 1019.7 - 0.0
29/06:00am 16.9 13.3 0.5 33 7.2 SE 9 11 5 6 1019.3 1018.4 0.0
29/05:30am 18.0 14.1 1.1 32 7.6 S 11 15 6 8 1019.4 - 0.0
29/05:00am 18.7 14.0 0.8 30 8.1 SSE 15 22 8 12 1019.0 - 0.0
29/04:30am 19.1 14.8 0.7 29 8.3 S 13 15 7 8 1019.4 - 0.0
29/04:00am 18.9 15.0 1.4 31 8.0 S 11 15 6 8 1019.5 - 0.0
29/03:30am 19.1 15.6 1.1 30 8.2 S 9 13 5 7 1019.7 - 0.0
29/03:00am 20.1 15.2 2.0 30 8.5 S 17 19 9 10 1019.6 1018.8 0.0
29/02:30am 20.0 16.7 2.4 31 8.3 SSW 9 11 5 6 1020.3 - 0.0
29/02:00am 20.4 17.1 2.3 30 8.5 S 9 13 5 7 1020.5 - 0.0
29/01:30am 20.7 17.0 2.5 30 8.6 SSE 11 15 6 8 1020.5 - 0.0
29/01:00am 21.0 17.0 2.8 30 8.7 SSE 13 17 7 9 1020.7 - 0.0
29/12:30am 21.0 17.4 3.2 31 8.6 SE 11 15 6 8 1020.7 - 0.0
29/12:00am 21.5 17.3 3.7 31 8.7 SE 15 20 8 11 1020.7 1019.8 0.0
 
Date/Time
EST
Temp
°C
App
Temp
°C
Dew
Point
Rel
Hum
%
Delta-T
°C
Wind Press
QNH
hPa
Press
MSL
hPa
Rain
since 9 am
mm
Dir
 
Spd
km/h
Gust
km/h
Spd
kts
Gust
kts
28/11:30pm 21.8 18.9 4.4 32 8.6 SE 9 17 5 9 1020.7 - 0.0
28/11:00pm 21.8 18.3 5.3 34 8.3 SSE 13 17 7 9 1020.9 - 0.0
28/10:30pm 21.7 18.9 6.8 38 7.7 S 11 15 6 8 1021.3 - 0.0
28/10:00pm 20.6 18.5 8.3 45 6.5 SE 9 13 5 7 1021.0 - 0.0
28/09:30pm 20.0 18.3 8.4 47 6.1 S 7 9 4 5 1021.3 - 0.0
28/09:00pm 20.1 18.5 8.1 46 6.3 S 6 7 3 4 1021.1 1020.2 0.0
28/08:30pm 21.0 19.2 8.0 43 6.9 SSW 7 9 4 5 1020.5 - 0.0
28/08:00pm 21.7 20.1 7.9 41 7.3 SSW 6 6 3 3 1020.0 - 0.0
28/07:30pm 22.4 20.2 7.8 39 7.8 SW 9 11 5 6 1019.7 - 0.0
28/07:00pm 22.6 20.1 8.0 39 7.8 S 11 15 6 8 1019.1 - 0.0
28/06:30pm 22.7 19.0 8.0 39 7.9 SSW 17 20 9 11 1019.0 - 0.0
28/06:00pm 22.9 19.2 7.8 38 8.0 SSW 17 20 9 11 1018.7 1017.8 0.0
28/05:30pm 23.4 19.1 7.9 37 8.3 SSW 20 28 11 15 1018.6 - 0.0
28/05:00pm 23.5 19.0 8.4 38 8.2 SSW 22 28 12 15 1018.6 - 0.0
28/04:30pm 23.7 18.7 8.2 37 8.4 SSW 24 30 13 16 1018.5 - 0.0
28/04:00pm 24.3 19.0 8.3 36 8.7 SSW 26 32 14 17 1018.6 - 0.0
28/03:30pm 24.7 20.0 7.8 34 9.1 SSW 22 28 12 15 1018.4 - 0.0
28/03:00pm 25.1 21.6 8.6 35 9.0 S 17 24 9 13 1018.6 1017.7 0.0
28/02:30pm 25.5 22.3 8.5 34 9.3 S 15 24 8 13 1018.8 - 0.0
28/02:00pm 25.5 22.9 9.3 36 9.0 SSW 13 17 7 9 1019.2 - 0.0
28/01:30pm 25.5 23.3 9.3 36 9.0 SSE 11 17 6 9 1019.6 - 0.0
28/01:00pm 25.2 22.4 9.9 38 8.6 SSE 15 20 8 11 1020.0 - 0.0
28/12:30pm 24.2 21.2 9.4 39 8.2 E 15 20 8 11 1020.6 - 0.0
28/12:00pm 24.8 21.9 9.5 38 8.5 E 15 20 8 11 1021.0 1020.1 0.0
28/11:30am 23.9 20.7 9.9 41 7.8 E 17 30 9 16 1021.6 - 0.0
28/11:00am 23.4 19.7 10.1 43 7.4 E 20 30 11 16 1021.8 - 0.0
28/10:30am 22.3 17.9 10.5 47 6.6 E 24 30 13 16 1022.0 - 0.0
28/10:00am 21.7 18.1 9.9 47 6.5 ESE 19 28 10 15 1022.5 - 0.0
28/09:30am 20.2 16.4 9.7 51 5.7 ESE 20 33 11 18 1022.4 - 0.0
28/09:00am 19.9 16.0 9.5 51 5.6 SE 20 30 11 16 1022.2 1021.4 0.8
28/08:30am 18.2 14.7 8.7 54 5.0 ESE 17 24 9 13 1022.0 - 0.8
28/08:00am 17.3 13.8 8.7 57 4.5 SE 17 28 9 15 1021.9 - 0.8
28/07:30am 16.3 13.9 8.8 61 3.9 ESE 11 19 6 10 1021.4 - 0.8
28/07:00am 15.2 12.8 8.7 65 3.4 SSE 11 19 6 10 1021.0 - 0.8
28/06:30am 15.7 13.1 9.4 66 3.3 SSE 13 17 7 9 1020.9 - 0.8
28/06:00am 15.8 13.9 9.0 64 3.5 SSE 9 11 5 6 1020.5 1019.6 0.8
28/05:30am 15.9 14.2 8.4 61 3.9 SE 7 11 4 6 1020.1 - 0.8
28/05:00am 16.1 13.6 8.1 59 4.1 SE 11 19 6 10 1020.2 - 0.8
28/04:30am 16.3 12.3 8.3 59 4.1 SSE 19 26 10 14 1020.1 - 0.8
28/04:00am 16.7 13.2 8.9 60 4.1 SSE 17 22 9 12 1020.1 - 0.8
28/03:30am 16.9 14.2 9.1 60 4.1 SE 13 19 7 10 1020.2 - 0.8
28/03:00am 17.0 14.7 10.4 65 3.6 SSE 13 19 7 10 1020.5 1019.6 0.8
28/02:30am 17.5 15.0 11.1 66 3.5 SE 15 24 8 13 1020.5 - 0.8
28/02:00am 17.8 15.8 11.4 66 3.5 SE 13 20 7 11 1020.8 - 0.8
28/01:30am 17.9 15.2 11.7 67 3.5 SSE 17 24 9 13 1020.9 - 0.8
28/01:00am 18.2 15.0 12.0 67 3.5 SSE 20 28 11 15 1020.9 - 0.8
28/12:30am 18.2 16.0 12.2 68 3.4 SSE 15 20 8 11 1021.1 - 0.8
28/12:00am 18.7 16.3 12.5 67 3.5 S 17 24 9 13 1021.4 1020.5 0.8
 
Date/Time
EST
Temp
°C
App
Temp
°C
Dew
Point
Rel
Hum
%
Delta-T
°C
Wind Press
QNH
hPa
Press
MSL
hPa
Rain
since 9 am
mm
Dir
 
Spd
km/h
Gust
km/h
Spd
kts
Gust
kts
27/11:30pm 18.9 16.5 12.6 67 3.6 S 17 20 9 11 1021.3 - 0.8
27/11:00pm 19.1 16.6 12.4 65 3.8 SSE 17 22 9 12 1021.2 - 0.8
27/10:30pm 19.2 17.0 12.2 64 4.0 SSE 15 22 8 12 1021.3 - 0.8
27/10:00pm 19.7 16.7 12.5 63 4.1 SSE 20 33 11 18 1021.1 - 0.8
27/09:30pm 20.2 17.5 12.9 63 4.2 SSE 19 26 10 14 1021.0 - 0.8
27/09:00pm 20.4 18.1 12.9 62 4.3 SSE 17 26 9 14 1020.8 1019.9 0.8
27/08:30pm 20.9 19.0 13.1 61 4.5 SSE 15 20 8 11 1020.6 - 0.8
27/08:00pm 21.4 19.5 13.1 59 4.8 SSE 15 19 8 10 1020.1 - 0.8
27/07:30pm 21.9 19.5 12.7 56 5.3 SSE 17 24 9 13 1019.8 - 0.8
27/07:00pm 22.3 21.0 12.5 53 5.7 SE 11 17 6 9 1019.4 - 0.8
27/06:30pm 22.9 21.6 12.5 52 6.0 SE 11 17 6 9 1018.9 - 0.8
27/06:00pm 24.0 22.3 12.6 49 6.6 SE 13 17 7 9 1018.6 1017.7 0.8
27/05:30pm 24.8 23.1 12.4 46 7.2 SE 13 19 7 10 1018.4 - 0.8
27/05:00pm 25.2 23.1 12.4 45 7.5 SE 15 22 8 12 1018.3 - 0.8
27/04:30pm 25.3 22.9 12.5 45 7.5 ESE 17 24 9 13 1018.2 - 0.8
27/04:00pm 25.4 22.4 12.6 45 7.5 E 20 26 11 14 1018.5 - 0.8
27/03:30pm 25.0 23.3 12.6 46 7.3 SE 13 19 7 10 1018.6 - 0.8
27/03:00pm 24.4 22.4 12.7 48 6.8 E 15 20 8 11 1018.9 1018.0 0.8
27/02:30pm 24.6 22.7 12.9 48 6.9 ESE 15 26 8 14 1019.0 - 0.8
27/02:00pm 23.5 21.4 13.7 54 5.8 SSE 17 28 9 15 1019.3 - 0.8
27/01:30pm 21.9 19.8 13.5 59 4.9 SE 17 26 9 14 1019.9 - 0.8
27/01:00pm 20.4 18.1 14.1 67 3.7 SE 19 33 10 18 1020.5 - 0.8
27/12:30pm 19.6 18.2 14.6 73 3.0 SE 15 19 8 10 1021.3 - 0.8
27/12:00pm 18.8 16.9 14.1 74 2.7 E 17 20 9 11 1021.1 1020.2 0.8
27/11:30am 17.6 15.4 14.3 81 1.9 SE 19 24 10 13 1022.0 - 0.6

Other Formats:

Comma delimited format used in spreadsheet applications
http://www.bom.gov.au/fwo/IDQ60801/IDQ60801.94332.axf

JavaScript Object Notation format (JSON) in row-major order
http://www.bom.gov.au/fwo/IDQ60801/IDQ60801.94332.json